sensor_id;sensor_type;location;lat;lon;timestamp;pressure;altitude;pressure_sealevel;temperature;humidity
67015;BME280;1033;52.560;13.374;2022-11-20T00:00:15;100639.91;;;0.68;100.00
67015;BME280;1033;52.560;13.374;2022-11-20T00:02:44;100638.69;;;0.62;100.00
67015;BME280;1033;52.560;13.374;2022-11-20T00:05:13;100637.66;;;0.73;100.00
67015;BME280;1033;52.560;13.374;2022-11-20T00:07:42;100632.94;;;0.67;100.00
67015;BME280;1033;52.560;13.374;2022-11-20T00:10:11;100638.94;;;0.69;100.00
67015;BME280;1033;52.560;13.374;2022-11-20T00:12:41;100636.19;;;0.51;100.00
67015;BME280;1033;52.560;13.374;2022-11-20T00:15:10;100638.72;;;0.53;100.00
67015;BME280;1033;52.560;13.374;2022-11-20T00:17:39;100633.91;;;0.66;100.00
67015;BME280;1033;52.560;13.374;2022-11-20T00:20:13;100638.97;;;0.59;100.00
67015;BME280;1033;52.560;13.374;2022-11-20T00:22:42;100643.59;;;0.67;100.00
67015;BME280;1033;52.560;13.374;2022-11-20T00:25:14;100643.84;;;0.64;100.00
67015;BME280;1033;52.560;13.374;2022-11-20T00:27:45;100640.50;;;0.62;99.99
67015;BME280;1033;52.560;13.374;2022-11-20T00:30:15;100635.84;;;0.64;100.00
67015;BME280;1033;52.560;13.374;2022-11-20T00:32:43;100634.88;;;0.65;99.84
67015;BME280;1033;52.560;13.374;2022-11-20T00:35:13;100636.72;;;0.55;99.96
67015;BME280;1033;52.560;13.374;2022-11-20T00:37:45;100632.06;;;0.76;100.00
67015;BME280;1033;52.560;13.374;2022-11-20T00:40:16;100641.56;;;0.78;99.12
67015;BME280;1033;52.560;13.374;2022-11-20T00:42:47;100645.00;;;0.61;98.89
67015;BME280;1033;52.560;13.374;2022-11-20T00:45:16;100641.19;;;0.64;99.43
67015;BME280;1033;52.560;13.374;2022-11-20T00:47:45;100643.59;;;0.67;99.10
67015;BME280;1033;52.560;13.374;2022-11-20T00:50:13;100641.59;;;0.69;98.97
67015;BME280;1033;52.560;13.374;2022-11-20T00:52:47;100628.03;;;0.62;98.74
67015;BME280;1033;52.560;13.374;2022-11-20T00:55:16;100629.41;;;0.66;99.04
67015;BME280;1033;52.560;13.374;2022-11-20T00:57:46;100632.09;;;0.66;98.79
67015;BME280;1033;52.560;13.374;2022-11-20T01:00:15;100635.44;;;0.59;98.98
67015;BME280;1033;52.560;13.374;2022-11-20T01:02:44;100638.81;;;0.61;98.76
67015;BME280;1033;52.560;13.374;2022-11-20T01:05:13;100641.91;;;0.66;98.12
67015;BME280;1033;52.560;13.374;2022-11-20T01:07:42;100639.13;;;0.58;98.05
67015;BME280;1033;52.560;13.374;2022-11-20T01:10:11;100633.91;;;0.66;98.69
67015;BME280;1033;52.560;13.374;2022-11-20T01:12:40;100631.13;;;0.58;98.76
67015;BME280;1033;52.560;13.374;2022-11-20T01:15:10;100632.31;;;0.73;98.88
67015;BME280;1033;52.560;13.374;2022-11-20T01:17:39;100633.06;;;0.65;98.52
67015;BME280;1033;52.560;13.374;2022-11-20T01:20:09;100628.28;;;0.69;98.78
67015;BME280;1033;52.560;13.374;2022-11-20T01:22:38;100633.16;;;0.73;98.25
67015;BME280;1033;52.560;13.374;2022-11-20T01:25:07;100641.88;;;0.75;97.56
67015;BME280;1033;52.560;13.374;2022-11-20T01:27:36;100631.69;;;0.61;97.72
67015;BME280;1033;52.560;13.374;2022-11-20T01:30:06;100629.25;;;0.68;97.52
67015;BME280;1033;52.560;13.374;2022-11-20T01:32:37;100625.91;;;0.66;97.45
67015;BME280;1033;52.560;13.374;2022-11-20T01:35:06;100627.59;;;0.67;97.58
67015;BME280;1033;52.560;13.374;2022-11-20T01:37:37;100622.28;;;0.67;96.79
67015;BME280;1033;52.560;13.374;2022-11-20T01:40:06;100623.16;;;0.58;96.51
67015;BME280;1033;52.560;13.374;2022-11-20T01:42:35;100619.03;;;0.63;96.96
67015;BME280;1033;52.560;13.374;2022-11-20T01:45:50;100611.09;;;0.54;97.06
67015;BME280;1033;52.560;13.374;2022-11-20T01:48:25;100618.38;;;0.52;96.44
67015;BME280;1033;52.560;13.374;2022-11-20T01:50:55;100619.47;;;0.59;96.58
67015;BME280;1033;52.560;13.374;2022-11-20T01:53:30;100619.63;;;0.57;96.95
67015;BME280;1033;52.560;13.374;2022-11-20T01:56:03;100611.69;;;0.48;96.65
67015;BME280;1033;52.560;13.374;2022-11-20T01:58:37;100611.50;;;0.59;96.57
67015;BME280;1033;52.560;13.374;2022-11-20T02:01:07;100612.50;;;0.58;96.18
67015;BME280;1033;52.560;13.374;2022-11-20T02:03:38;100611.69;;;0.48;96.46
67015;BME280;1033;52.560;13.374;2022-11-20T02:06:13;100611.66;;;0.57;96.25
67015;BME280;1033;52.560;13.374;2022-11-20T02:08:43;100603.00;;;0.46;95.76
67015;BME280;1033;52.560;13.374;2022-11-20T02:11:12;100602.59;;;0.40;96.51
67015;BME280;1033;52.560;13.374;2022-11-20T02:13:41;100597.22;;;0.50;95.65
67015;BME280;1033;52.560;13.374;2022-11-20T02:16:15;100599.34;;;0.47;95.86
67015;BME280;1033;52.560;13.374;2022-11-20T02:18:47;100596.56;;;0.38;95.59
67015;BME280;1033;52.560;13.374;2022-11-20T02:21:28;100604.00;;;0.35;95.87
67015;BME280;1033;52.560;13.374;2022-11-20T02:24:14;100602.47;;;0.32;96.22
67015;BME280;1033;52.560;13.374;2022-11-20T02:26:48;100596.56;;;0.38;96.46
67015;BME280;1033;52.560;13.374;2022-11-20T02:29:23;100599.06;;;0.50;96.31
67015;BME280;1033;52.560;13.374;2022-11-20T02:31:53;100601.88;;;0.48;96.70
67015;BME280;1033;52.560;13.374;2022-11-20T02:34:23;100593.16;;;0.56;96.30
67015;BME280;1033;52.560;13.374;2022-11-20T02:36:52;100595.81;;;0.56;96.57
67015;BME280;1033;52.560;13.374;2022-11-20T02:39:25;100601.72;;;0.50;95.51
67015;BME280;1033;52.560;13.374;2022-11-20T02:41:56;100596.81;;;0.45;95.79
67015;BME280;1033;52.560;13.374;2022-11-20T02:44:25;100595.00;;;0.46;95.77
67015;BME280;1033;52.560;13.374;2022-11-20T02:46:57;100589.78;;;0.54;95.52
67015;BME280;1033;52.560;13.374;2022-11-20T02:49:26;100598.63;;;0.44;95.13
67015;BME280;1033;52.560;13.374;2022-11-20T02:51:55;100596.56;;;0.48;95.25
67015;BME280;1033;52.560;13.374;2022-11-20T02:54:26;100602.16;;;0.35;95.35
67015;BME280;1033;52.560;13.374;2022-11-20T02:56:55;100603.56;;;0.39;96.16
67015;BME280;1033;52.560;13.374;2022-11-20T02:59:24;100595.47;;;0.31;95.91
67015;BME280;1033;52.560;13.374;2022-11-20T03:01:52;100605.25;;;0.40;96.48
67015;BME280;1033;52.560;13.374;2022-11-20T03:04:21;100597.97;;;0.42;96.27
67015;BME280;1033;52.560;13.374;2022-11-20T03:06:50;100599.66;;;0.43;95.63
67015;BME280;1033;52.560;13.374;2022-11-20T03:09:19;100594.03;;;0.47;95.44
67015;BME280;1033;52.560;13.374;2022-11-20T03:11:50;100599.63;;;0.53;94.92
67015;BME280;1033;52.560;13.374;2022-11-20T03:14:18;100588.00;;;0.44;95.51
67015;BME280;1033;52.560;13.374;2022-11-20T03:16:47;100589.38;;;0.49;95.68
67015;BME280;1033;52.560;13.374;2022-11-20T03:19:16;100584.34;;;0.46;95.73
67015;BME280;1033;52.560;13.374;2022-11-20T03:21:46;100585.06;;;0.48;95.50
67015;BME280;1033;52.560;13.374;2022-11-20T03:24:14;100579.59;;;0.39;95.84
67015;BME280;1033;52.560;13.374;2022-11-20T03:26:43;100579.72;;;0.48;95.61
67015;BME280;1033;52.560;13.374;2022-11-20T03:29:13;100577.91;;;0.48;95.24
67015;BME280;1033;52.560;13.374;2022-11-20T03:31:42;100576.66;;;0.42;95.07
67015;BME280;1033;52.560;13.374;2022-11-20T03:34:12;100572.72;;;0.47;95.73
67015;BME280;1033;52.560;13.374;2022-11-20T03:36:42;100575.69;;;0.34;96.04
67015;BME280;1033;52.560;13.374;2022-11-20T03:39:11;100574.72;;;0.35;96.26
67015;BME280;1033;52.560;13.374;2022-11-20T03:41:41;100574.81;;;0.53;95.78
67015;BME280;1033;52.560;13.374;2022-11-20T03:44:13;100567.41;;;0.47;95.19
67015;BME280;1033;52.560;13.374;2022-11-20T03:46:42;100564.63;;;0.38;95.47
67015;BME280;1033;52.560;13.374;2022-11-20T03:49:10;100564.16;;;0.53;95.52
67015;BME280;1033;52.560;13.374;2022-11-20T03:51:39;100565.69;;;0.55;94.93
67015;BME280;1033;52.560;13.374;2022-11-20T03:54:08;100559.81;;;0.52;95.12
67015;BME280;1033;52.560;13.374;2022-11-20T03:56:38;100566.88;;;0.33;95.12
67015;BME280;1033;52.560;13.374;2022-11-20T04:02:39;100561.34;;;0.54;95.50
67015;BME280;1033;52.560;13.374;2022-11-20T04:05:08;100560.09;;;0.49;95.89
67015;BME280;1033;52.560;13.374;2022-11-20T04:07:37;100558.72;;;0.44;95.12
67015;BME280;1033;52.560;13.374;2022-11-20T04:10:06;100558.56;;;0.46;95.06
67015;BME280;1033;52.560;13.374;2022-11-20T04:12:35;100552.00;;;0.40;95.24
67015;BME280;1033;52.560;13.374;2022-11-20T04:15:05;100559.59;;;0.35;94.82
67015;BME280;1033;52.560;13.374;2022-11-20T04:17:34;100562.28;;;0.26;95.46
67015;BME280;1033;52.560;13.374;2022-11-20T04:20:05;100562.41;;;0.24;95.65
67015;BME280;1033;52.560;13.374;2022-11-20T04:22:34;100562.41;;;0.24;95.73
67015;BME280;1033;52.560;13.374;2022-11-20T04:25:03;100558.50;;;0.28;95.36
67015;BME280;1033;52.560;13.374;2022-11-20T04:27:32;100568.84;;;0.31;95.40
67015;BME280;1033;52.560;13.374;2022-11-20T04:30:01;100564.09;;;0.25;95.63
67015;BME280;1033;52.560;13.374;2022-11-20T04:32:30;100559.59;;;0.26;95.23
67015;BME280;1033;52.560;13.374;2022-11-20T04:34:59;100569.41;;;0.25;95.34
67015;BME280;1033;52.560;13.374;2022-11-20T04:37:29;100561.84;;;0.30;94.85
67015;BME280;1033;52.560;13.374;2022-11-20T04:39:58;100559.75;;;0.24;94.74
67015;BME280;1033;52.560;13.374;2022-11-20T04:42:27;100561.19;;;0.19;95.19
67015;BME280;1033;52.560;13.374;2022-11-20T04:44:59;100556.81;;;0.27;94.46
67015;BME280;1033;52.560;13.374;2022-11-20T04:47:28;100554.03;;;0.19;94.79
67015;BME280;1033;52.560;13.374;2022-11-20T04:49:57;100557.66;;;0.28;94.75
67015;BME280;1033;52.560;13.374;2022-11-20T04:52:26;100550.97;;;0.14;95.12
67015;BME280;1033;52.560;13.374;2022-11-20T04:54:56;100555.28;;;0.15;95.30
67015;BME280;1033;52.560;13.374;2022-11-20T04:57:25;100553.75;;;0.22;95.30
67015;BME280;1033;52.560;13.374;2022-11-20T04:59:54;100550.81;;;0.16;95.15
67015;BME280;1033;52.560;13.374;2022-11-20T05:02:23;100548.00;;;0.17;95.67
67015;BME280;1033;52.560;13.374;2022-11-20T05:04:53;100544.47;;;0.26;95.97
67015;BME280;1033;52.560;13.374;2022-11-20T05:07:21;100542.53;;;0.28;95.26
67015;BME280;1033;52.560;13.374;2022-11-20T05:09:50;100538.34;;;0.16;95.25
67015;BME280;1033;52.560;13.374;2022-11-20T05:12:21;100537.81;;;0.13;96.34
67015;BME280;1033;52.560;13.374;2022-11-20T05:14:50;100536.22;;;0.20;95.83
67015;BME280;1033;52.560;13.374;2022-11-20T05:17:18;100526.72;;;0.17;95.94
67015;BME280;1033;52.560;13.374;2022-11-20T05:19:47;100531.47;;;0.23;95.94
67015;BME280;1033;52.560;13.374;2022-11-20T05:22:19;100531.31;;;0.25;96.06
67015;BME280;1033;52.560;13.374;2022-11-20T05:24:48;100522.78;;;0.21;96.47
67015;BME280;1033;52.560;13.374;2022-11-20T05:27:17;100522.78;;;0.21;96.76
67015;BME280;1033;52.560;13.374;2022-11-20T05:29:47;100520.66;;;0.25;96.17
67015;BME280;1033;52.560;13.374;2022-11-20T05:32:16;100530.78;;;0.21;95.87
67015;BME280;1033;52.560;13.374;2022-11-20T05:34:45;100530.75;;;0.31;95.96
67015;BME280;1033;52.560;13.374;2022-11-20T05:37:14;100524.75;;;0.29;96.03
67015;BME280;1033;52.560;13.374;2022-11-20T05:39:43;100520.94;;;0.31;96.05
67015;BME280;1033;52.560;13.374;2022-11-20T05:42:12;100520.41;;;0.28;96.43
67015;BME280;1033;52.560;13.374;2022-11-20T05:45:02;100522.94;;;0.20;96.07
67015;BME280;1033;52.560;13.374;2022-11-20T05:47:33;100520.44;;;0.18;96.76
67015;BME280;1033;52.560;13.374;2022-11-20T05:50:03;100517.03;;;0.26;96.27
67015;BME280;1033;52.560;13.374;2022-11-20T05:52:33;100512.56;;;0.26;96.03
67015;BME280;1033;52.560;13.374;2022-11-20T05:55:01;100512.25;;;0.29;96.29
67015;BME280;1033;52.560;13.374;2022-11-20T05:57:31;100501.31;;;0.32;96.19
67015;BME280;1033;52.560;13.374;2022-11-20T06:00:02;100512.50;;;0.36;96.05
67015;BME280;1033;52.560;13.374;2022-11-20T06:02:33;100513.94;;;0.30;96.17
67015;BME280;1033;52.560;13.374;2022-11-20T06:05:03;100504.97;;;0.31;96.59
67015;BME280;1033;52.560;13.374;2022-11-20T06:07:31;100504.66;;;0.34;96.38
67015;BME280;1033;52.560;13.374;2022-11-20T06:10:00;100505.50;;;0.35;95.92
67015;BME280;1033;52.560;13.374;2022-11-20T06:12:31;100506.63;;;0.42;95.83
67015;BME280;1033;52.560;13.374;2022-11-20T06:15:03;100509.13;;;0.43;95.90
67015;BME280;1033;52.560;13.374;2022-11-20T06:17:32;100501.59;;;0.29;96.37
67015;BME280;1033;52.560;13.374;2022-11-20T06:20:01;100498.31;;;0.45;96.42
67015;BME280;1033;52.560;13.374;2022-11-20T06:22:30;100500.59;;;0.40;96.21
67015;BME280;1033;52.560;13.374;2022-11-20T06:25:00;100502.38;;;0.49;96.24
67015;BME280;1033;52.560;13.374;2022-11-20T06:27:29;100503.91;;;0.52;95.79
67015;BME280;1033;52.560;13.374;2022-11-20T06:29:58;100509.31;;;0.60;95.71
67015;BME280;1033;52.560;13.374;2022-11-20T06:32:28;100504.88;;;0.51;95.12
67015;BME280;1033;52.560;13.374;2022-11-20T06:34:57;100509.78;;;0.55;95.68
67015;BME280;1033;52.560;13.374;2022-11-20T06:37:26;100510.13;;;0.42;95.80
67015;BME280;1033;52.560;13.374;2022-11-20T06:39:55;100499.56;;;0.51;96.50
67015;BME280;1033;52.560;13.374;2022-11-20T06:42:24;100502.31;;;0.59;96.16
67015;BME280;1033;52.560;13.374;2022-11-20T06:44:52;100506.25;;;0.55;95.43
67015;BME280;1033;52.560;13.374;2022-11-20T06:47:21;100503.91;;;0.52;96.32
67015;BME280;1033;52.560;13.374;2022-11-20T06:49:52;100501.72;;;0.65;95.68
67015;BME280;1033;52.560;13.374;2022-11-20T06:52:21;100496.47;;;0.55;95.90
67015;BME280;1033;52.560;13.374;2022-11-20T06:54:51;100492.47;;;0.69;96.68
67015;BME280;1033;52.560;13.374;2022-11-20T06:57:20;100492.97;;;0.82;94.94
67015;BME280;1033;52.560;13.374;2022-11-20T06:59:48;100498.22;;;0.64;95.32
67015;BME280;1033;52.560;13.374;2022-11-20T07:02:17;100499.56;;;0.78;95.70
67015;BME280;1033;52.560;13.374;2022-11-20T07:04:47;100493.72;;;0.92;95.13
67015;BME280;1033;52.560;13.374;2022-11-20T07:07:18;100495.50;;;1.01;94.39
67015;BME280;1033;52.560;13.374;2022-11-20T07:09:47;100494.28;;;0.96;94.00
67015;BME280;1033;52.560;13.374;2022-11-20T07:12:16;100493.72;;;0.92;94.81
67015;BME280;1033;52.560;13.374;2022-11-20T07:14:45;100492.06;;;0.91;94.81
67015;BME280;1033;52.560;13.374;2022-11-20T07:17:14;100495.72;;;0.90;94.44
67015;BME280;1033;52.560;13.374;2022-11-20T07:19:43;100495.78;;;0.98;94.06
67015;BME280;1033;52.560;13.374;2022-11-20T07:22:12;100500.44;;;0.96;93.81
67015;BME280;1033;52.560;13.374;2022-11-20T07:24:42;100501.50;;;1.03;93.61
67015;BME280;1033;52.560;13.374;2022-11-20T07:27:12;100496.03;;;0.87;93.82
67015;BME280;1033;52.560;13.374;2022-11-20T07:29:41;100501.22;;;1.06;93.11
67015;BME280;1033;52.560;13.374;2022-11-20T07:32:10;100499.94;;;0.83;93.42
67015;BME280;1033;52.560;13.374;2022-11-20T07:34:39;100498.13;;;0.83;93.59
67015;BME280;1033;52.560;13.374;2022-11-20T07:37:08;100502.09;;;0.97;94.12
67015;BME280;1033;52.560;13.374;2022-11-20T07:39:37;100494.81;;;0.99;94.02
67015;BME280;1033;52.560;13.374;2022-11-20T07:42:08;100492.69;;;1.20;93.39
67015;BME280;1033;52.560;13.374;2022-11-20T07:44:37;100499.75;;;1.12;92.19
67015;BME280;1033;52.560;13.374;2022-11-20T07:47:07;100491.31;;;1.34;92.00
67015;BME280;1033;52.560;13.374;2022-11-20T07:49:35;100485.38;;;1.22;92.39
67015;BME280;1033;52.560;13.374;2022-11-20T07:52:04;100491.78;;;1.29;92.36
67015;BME280;1033;52.560;13.374;2022-11-20T07:54:33;100481.66;;;1.33;92.08
67015;BME280;1033;52.560;13.374;2022-11-20T07:57:02;100479.44;;;1.28;91.15
67015;BME280;1033;52.560;13.374;2022-11-20T07:59:33;100480.03;;;1.22;91.28
67015;BME280;1033;52.560;13.374;2022-11-20T08:02:01;100488.22;;;1.21;90.99
67015;BME280;1033;52.560;13.374;2022-11-20T08:04:30;100486.59;;;1.10;90.24
67015;BME280;1033;52.560;13.374;2022-11-20T08:07:00;100481.81;;;0.96;90.67
67015;BME280;1033;52.560;13.374;2022-11-20T08:09:29;100484.47;;;0.96;91.34
67015;BME280;1033;52.560;13.374;2022-11-20T08:11:58;100482.72;;;1.05;90.20
67015;BME280;1033;52.560;13.374;2022-11-20T08:14:46;100481.72;;;1.06;89.49
67015;BME280;1033;52.560;13.374;2022-11-20T08:17:15;100476.75;;;0.93;89.99
67015;BME280;1033;52.560;13.374;2022-11-20T08:19:44;100489.72;;;1.06;90.76
67015;BME280;1033;52.560;13.374;2022-11-20T08:22:13;100482.47;;;0.98;89.55
67015;BME280;1033;52.560;13.374;2022-11-20T08:24:41;100473.56;;;0.90;90.05
67015;BME280;1033;52.560;13.374;2022-11-20T08:27:11;100485.69;;;1.19;89.75
67015;BME280;1033;52.560;13.374;2022-11-20T08:29:40;100478.69;;;1.18;89.09
67015;BME280;1033;52.560;13.374;2022-11-20T08:32:10;100481.56;;;1.07;89.09
67015;BME280;1033;52.560;13.374;2022-11-20T08:34:39;100476.22;;;1.07;88.67
67015;BME280;1033;52.560;13.374;2022-11-20T08:37:08;100467.84;;;1.02;89.04
67015;BME280;1033;52.560;13.374;2022-11-20T08:39:37;100462.13;;;0.97;88.44
67015;BME280;1033;52.560;13.374;2022-11-20T08:42:07;100465.66;;;1.15;88.73
67015;BME280;1033;52.560;13.374;2022-11-20T08:44:36;100468.47;;;1.31;87.61
67015;BME280;1033;52.560;13.374;2022-11-20T08:47:05;100468.19;;;1.35;87.65
67015;BME280;1033;52.560;13.374;2022-11-20T08:49:36;100464.59;;;1.44;86.97
67015;BME280;1033;52.560;13.374;2022-11-20T08:52:05;100473.03;;;1.57;86.86
67015;BME280;1033;52.560;13.374;2022-11-20T08:54:33;100460.75;;;1.46;86.91
67015;BME280;1033;52.560;13.374;2022-11-20T08:57:02;100468.75;;;1.64;86.46
67015;BME280;1033;52.560;13.374;2022-11-20T08:59:31;100475.97;;;1.71;85.76
67015;BME280;1033;52.560;13.374;2022-11-20T09:02:20;100475.28;;;1.69;85.06
67015;BME280;1033;52.560;13.374;2022-11-20T09:04:50;100478.81;;;1.52;85.80
67015;BME280;1033;52.560;13.374;2022-11-20T09:07:20;100477.75;;;1.63;85.94
67015;BME280;1033;52.560;13.374;2022-11-20T09:09:49;100479.81;;;1.69;85.29
67015;BME280;1033;52.560;13.374;2022-11-20T09:12:38;100479.59;;;1.45;85.75
67015;BME280;1033;52.560;13.374;2022-11-20T09:15:08;100476.91;;;1.27;86.86
67015;BME280;1033;52.560;13.374;2022-11-20T09:17:37;100471.50;;;1.37;87.58
67015;BME280;1033;52.560;13.374;2022-11-20T09:20:09;100472.03;;;1.58;86.48
67015;BME280;1033;52.560;13.374;2022-11-20T09:22:40;100483.44;;;1.68;86.64
67015;BME280;1033;52.560;13.374;2022-11-20T09:25:09;100484.06;;;1.62;86.53
67015;BME280;1033;52.560;13.374;2022-11-20T09:27:38;100488.63;;;1.69;86.33
67015;BME280;1033;52.560;13.374;2022-11-20T09:30:09;100482.16;;;1.72;84.93
67015;BME280;1033;52.560;13.374;2022-11-20T09:32:39;100487.47;;;1.72;84.91
67015;BME280;1033;52.560;13.374;2022-11-20T09:35:10;100484.50;;;1.75;85.54
67015;BME280;1033;52.560;13.374;2022-11-20T09:38:06;100476.75;;;1.90;84.81
67015;BME280;1033;52.560;13.374;2022-11-20T09:40:38;100470.75;;;1.88;84.09
67015;BME280;1033;52.560;13.374;2022-11-20T09:43:14;100473.31;;;1.97;83.72
67015;BME280;1033;52.560;13.374;2022-11-20T09:45:54;100465.75;;;2.18;83.38
67015;BME280;1033;52.560;13.374;2022-11-20T09:48:38;100464.81;;;2.28;82.51
67015;BME280;1033;52.560;13.374;2022-11-20T09:51:20;100476.41;;;2.10;82.21
67015;BME280;1033;52.560;13.374;2022-11-20T09:54:00;100468.00;;;2.31;82.79
67015;BME280;1033;52.560;13.374;2022-11-20T09:56:39;100461.13;;;2.29;82.93
67015;BME280;1033;52.560;13.374;2022-11-20T09:59:20;100462.94;;;2.54;82.28
67015;BME280;1033;52.560;13.374;2022-11-20T10:01:55;100457.72;;;2.44;81.28
67015;BME280;1033;52.560;13.374;2022-11-20T10:04:25;100458.22;;;2.48;80.82
67015;BME280;1033;52.560;13.374;2022-11-20T10:07:00;100454.81;;;2.72;80.31
67015;BME280;1033;52.560;13.374;2022-11-20T10:09:52;100452.31;;;2.70;80.74
67015;BME280;1033;52.560;13.374;2022-11-20T10:12:27;100451.44;;;2.61;80.34
67015;BME280;1033;52.560;13.374;2022-11-20T10:15:10;100456.25;;;2.58;80.36
67015;BME280;1033;52.560;13.374;2022-11-20T10:18:02;100455.19;;;2.43;80.61
67015;BME280;1033;52.560;13.374;2022-11-20T10:20:41;100451.56;;;2.52;81.16
67015;BME280;1033;52.560;13.374;2022-11-20T10:23:38;100443.13;;;2.23;81.42
67015;BME280;1033;52.560;13.374;2022-11-20T10:26:17;100445.78;;;2.23;81.80
67015;BME280;1033;52.560;13.374;2022-11-20T10:29:01;100431.47;;;2.32;81.21
67015;BME280;1033;52.560;13.374;2022-11-20T10:31:37;100436.28;;;2.28;81.59
67015;BME280;1033;52.560;13.374;2022-11-20T10:34:16;100429.44;;;2.26;82.08
67015;BME280;1033;52.560;13.374;2022-11-20T10:36:52;100423.53;;;2.14;81.97
67015;BME280;1033;52.560;13.374;2022-11-20T10:39:32;100420.84;;;2.14;82.81
67015;BME280;1033;52.560;13.374;2022-11-20T10:42:02;100419.75;;;2.25;81.82
67015;BME280;1033;52.560;13.374;2022-11-20T10:44:37;100424.09;;;2.26;82.04
67015;BME280;1033;52.560;13.374;2022-11-20T10:47:32;100418.38;;;2.54;82.29
67015;BME280;1033;52.560;13.374;2022-11-20T10:50:04;100415.81;;;2.45;80.62
67015;BME280;1033;52.560;13.374;2022-11-20T10:52:41;100414.53;;;2.57;81.68
67015;BME280;1033;52.560;13.374;2022-11-20T10:55:24;100420.22;;;2.62;81.11
67015;BME280;1033;52.560;13.374;2022-11-20T10:57:57;100413.94;;;2.87;80.17
67015;BME280;1033;52.560;13.374;2022-11-20T11:00:32;100410.25;;;2.80;80.34
67015;BME280;1033;52.560;13.374;2022-11-20T11:03:01;100413.28;;;3.01;79.64
67015;BME280;1033;52.560;13.374;2022-11-20T11:05:36;100421.66;;;2.98;79.84
67015;BME280;1033;52.560;13.374;2022-11-20T11:08:12;100425.31;;;2.89;79.63
67015;BME280;1033;52.560;13.374;2022-11-20T11:10:47;100419.91;;;2.73;80.20
67015;BME280;1033;52.560;13.374;2022-11-20T11:13:23;100421.41;;;2.68;80.18
67015;BME280;1033;52.560;13.374;2022-11-20T11:15:53;100411.91;;;2.73;80.39
67015;BME280;1033;52.560;13.374;2022-11-20T11:18:26;100414.56;;;2.73;80.07
67015;BME280;1033;52.560;13.374;2022-11-20T11:20:59;100412.25;;;2.78;80.22
67015;BME280;1033;52.560;13.374;2022-11-20T11:23:33;100412.31;;;2.44;81.06
67015;BME280;1033;52.560;13.374;2022-11-20T11:26:06;100409.72;;;2.69;81.51
67015;BME280;1033;52.560;13.374;2022-11-20T11:28:35;100416.53;;;2.55;80.36
67015;BME280;1033;52.560;13.374;2022-11-20T11:31:04;100410.56;;;2.61;80.57
67015;BME280;1033;52.560;13.374;2022-11-20T11:33:33;100413.19;;;2.53;80.06
67015;BME280;1033;52.560;13.374;2022-11-20T11:36:04;100413.22;;;2.19;80.97
67015;BME280;1033;52.560;13.374;2022-11-20T11:38:44;100407.13;;;2.43;81.93
67015;BME280;1033;52.560;13.374;2022-11-20T11:41:19;100397.13;;;2.37;80.46
67015;BME280;1033;52.560;13.374;2022-11-20T11:43:53;100399.31;;;2.49;81.21
67015;BME280;1033;52.560;13.374;2022-11-20T11:46:49;100394.13;;;2.48;81.48
67015;BME280;1033;52.560;13.374;2022-11-20T11:49:21;100398.72;;;2.22;82.08
67015;BME280;1033;52.560;13.374;2022-11-20T11:52:12;100397.78;;;2.05;84.03
67015;BME280;1033;52.560;13.374;2022-11-20T11:54:48;100402.28;;;2.04;85.11
67015;BME280;1033;52.560;13.374;2022-11-20T11:57:27;100394.69;;;1.84;86.16
67015;BME280;1033;52.560;13.374;2022-11-20T12:00:04;100398.03;;;1.86;87.04
67015;BME280;1033;52.560;13.374;2022-11-20T12:02:49;100397.19;;;1.85;87.14
67015;BME280;1033;52.560;13.374;2022-11-20T12:05:26;100395.09;;;1.71;88.59
67015;BME280;1033;52.560;13.374;2022-11-20T12:08:03;100397.16;;;1.77;89.17
67015;BME280;1033;52.560;13.374;2022-11-20T12:10:46;100393.88;;;1.83;88.44
67015;BME280;1033;52.560;13.374;2022-11-20T12:13:45;100389.88;;;1.87;87.87
67015;BME280;1033;52.560;13.374;2022-11-20T12:16:19;100387.16;;;1.79;88.30
67015;BME280;1033;52.560;13.374;2022-11-20T12:18:51;100386.84;;;1.82;88.75
67015;BME280;1033;52.560;13.374;2022-11-20T12:21:53;100378.88;;;1.90;88.42
67015;BME280;1033;52.560;13.374;2022-11-20T12:24:53;100375.44;;;1.72;87.51
67015;BME280;1033;52.560;13.374;2022-11-20T12:27:58;100370.59;;;1.67;87.89
67015;BME280;1033;52.560;13.374;2022-11-20T12:30:34;100370.47;;;1.77;87.08
67015;BME280;1033;52.560;13.374;2022-11-20T12:33:44;100372.06;;;1.96;86.00
67015;BME280;1033;52.560;13.374;2022-11-20T12:36:29;100374.34;;;1.83;85.77
67015;BME280;1033;52.560;13.374;2022-11-20T12:39:27;100362.50;;;1.85;85.38
67015;BME280;1033;52.560;13.374;2022-11-20T12:42:34;100367.47;;;1.80;85.22
67015;BME280;1033;52.560;13.374;2022-11-20T12:45:55;100366.09;;;2.02;85.91
67015;BME280;1033;52.560;13.374;2022-11-20T12:48:41;100359.09;;;2.09;85.85
67015;BME280;1033;52.560;13.374;2022-11-20T12:51:34;100355.88;;;2.31;83.88
67015;BME280;1033;52.560;13.374;2022-11-20T12:54:47;100355.06;;;2.39;82.16
67015;BME280;1033;52.560;13.374;2022-11-20T12:57:30;100355.34;;;2.28;82.74
67015;BME280;1033;52.560;13.374;2022-11-20T13:00:18;100355.41;;;2.44;82.73
67015;BME280;1033;52.560;13.374;2022-11-20T13:03:32;100348.75;;;2.56;82.55
67015;BME280;1033;52.560;13.374;2022-11-20T13:06:13;100347.59;;;2.67;81.56
67015;BME280;1033;52.560;13.374;2022-11-20T13:08:53;100342.28;;;2.75;81.22
67015;BME280;1033;52.560;13.374;2022-11-20T13:11:32;100337.09;;;2.73;81.09
67015;BME280;1033;52.560;13.374;2022-11-20T13:14:19;100343.78;;;2.69;80.95
67015;BME280;1033;52.560;13.374;2022-11-20T13:17:04;100336.72;;;2.52;81.78
67015;BME280;1033;52.560;13.374;2022-11-20T13:19:37;100338.38;;;2.45;82.35
67015;BME280;1033;52.560;13.374;2022-11-20T13:22:10;100341.06;;;2.53;82.56
67015;BME280;1033;52.560;13.374;2022-11-20T13:24:51;100329.53;;;2.44;82.35
67015;BME280;1033;52.560;13.374;2022-11-20T13:27:25;100334.47;;;2.23;83.12
67015;BME280;1033;52.560;13.374;2022-11-20T13:30:13;100330.91;;;1.98;83.58
67015;BME280;1033;52.560;13.374;2022-11-20T13:32:54;100330.72;;;2.00;84.20
67015;BME280;1033;52.560;13.374;2022-11-20T13:35:34;100338.59;;;2.09;84.08